createdAt,value
2022-11-30T00:01:40.590Z,24.60
2022-11-30T00:04:08.198Z,20.83
2022-11-30T00:06:35.554Z,22.13
2022-11-30T00:09:02.912Z,21.00
2022-11-30T00:11:30.992Z,21.40
2022-11-30T00:13:59.696Z,22.13
2022-11-30T00:16:27.595Z,20.70
2022-11-30T00:18:55.300Z,20.58
2022-11-30T00:21:22.613Z,21.70
2022-11-30T00:23:49.986Z,19.48
2022-11-30T00:26:19.309Z,23.15
2022-11-30T00:28:47.672Z,19.55
2022-11-30T00:31:16.821Z,20.02
2022-11-30T00:33:44.720Z,18.60
2022-11-30T00:36:17.818Z,19.08
2022-11-30T00:38:45.889Z,20.60
2022-11-30T00:41:13.720Z,19.27
2022-11-30T00:43:41.217Z,17.98
2022-11-30T00:46:12.006Z,17.70
2022-11-30T00:48:40.083Z,17.80
2022-11-30T00:51:09.504Z,16.27
2022-11-30T00:53:37.487Z,16.48
2022-11-30T00:56:05.558Z,19.33
2022-11-30T00:58:33.135Z,17.20
2022-11-30T01:01:01.033Z,18.85
2022-11-30T01:03:28.363Z,17.37
2022-11-30T01:05:55.712Z,16.05
2022-11-30T01:08:25.614Z,16.05
2022-11-30T01:10:54.698Z,17.70
2022-11-30T01:13:22.400Z,15.15
2022-11-30T01:15:50.104Z,21.45
2022-11-30T01:18:17.536Z,16.00
2022-11-30T01:20:44.871Z,16.42
2022-11-30T01:23:12.486Z,17.92
2022-11-30T01:25:39.880Z,18.60
2022-11-30T01:28:07.281Z,15.13
2022-11-30T01:30:34.948Z,13.13
2022-11-30T01:33:04.104Z,14.60
2022-11-30T01:35:31.457Z,17.70
2022-11-30T01:37:59.149Z,16.02
2022-11-30T01:40:26.471Z,13.40
2022-11-30T01:42:53.848Z,13.50
2022-11-30T01:45:21.549Z,15.55
2022-11-30T01:47:52.465Z,15.55
2022-11-30T01:50:27.289Z,17.62
2022-11-30T01:52:57.062Z,13.80
2022-11-30T01:55:27.452Z,13.32
2022-11-30T01:57:58.094Z,12.93
2022-11-30T02:00:25.412Z,12.95
2022-11-30T02:02:52.970Z,13.00
2022-11-30T02:05:21.253Z,12.45
2022-11-30T02:07:48.703Z,13.38
2022-11-30T02:10:19.674Z,13.15
2022-11-30T02:13:02.472Z,12.75
2022-11-30T02:15:36.372Z,14.02
2022-11-30T02:18:12.783Z,15.23
2022-11-30T02:20:58.102Z,14.32
2022-11-30T02:23:43.327Z,14.93
2022-11-30T02:29:07.681Z,14.10
2022-11-30T02:32:08.734Z,14.90
2022-11-30T02:34:37.545Z,20.35
2022-11-30T02:37:06.034Z,16.55
2022-11-30T02:39:33.405Z,18.45
2022-11-30T02:42:00.991Z,20.23
2022-11-30T02:44:28.489Z,15.48
2022-11-30T02:47:14.610Z,15.02
2022-11-30T02:50:04.907Z,12.50
2022-11-30T02:52:32.313Z,12.43
2022-11-30T02:55:01.787Z,13.77
2022-11-30T02:57:29.135Z,13.15
2022-11-30T02:59:57.077Z,12.88
2022-11-30T03:02:24.737Z,14.57
2022-11-30T03:04:52.115Z,13.10
2022-11-30T03:07:19.504Z,13.60
2022-11-30T03:09:47.151Z,12.48
2022-11-30T03:12:14.484Z,10.93
2022-11-30T03:14:41.902Z,11.85
2022-11-30T03:17:09.506Z,11.00
2022-11-30T03:19:36.847Z,12.65
2022-11-30T03:22:04.341Z,13.70
2022-11-30T03:24:31.997Z,13.50
2022-11-30T03:26:59.703Z,12.00
2022-11-30T03:29:27.188Z,12.10
2022-11-30T03:31:54.796Z,13.48
2022-11-30T03:34:22.820Z,17.73
2022-11-30T03:36:50.156Z,14.27
2022-11-30T03:39:17.743Z,14.25
2022-11-30T03:41:45.060Z,17.90
2022-11-30T03:44:12.379Z,17.65
2022-11-30T03:46:40.049Z,13.68
2022-11-30T03:49:07.453Z,19.10
2022-11-30T03:51:35.486Z,15.35
2022-11-30T03:54:03.119Z,15.80
2022-11-30T03:56:30.502Z,17.67
2022-11-30T03:58:57.858Z,16.73
2022-11-30T04:01:25.881Z,14.43
2022-11-30T04:03:54.322Z,17.37
2022-11-30T04:06:22.390Z,14.60
2022-11-30T04:08:50.075Z,15.57
2022-11-30T04:11:17.784Z,13.60
2022-11-30T04:13:45.616Z,16.05
2022-11-30T04:16:13.029Z,17.05
2022-11-30T04:18:40.664Z,13.30
2022-11-30T04:21:13.751Z,15.77
2022-11-30T04:23:41.393Z,14.38
2022-11-30T04:26:12.287Z,15.43
2022-11-30T04:28:39.877Z,13.30
2022-11-30T04:31:07.618Z,14.93
2022-11-30T04:33:35.076Z,14.77
2022-11-30T04:36:04.833Z,15.10
2022-11-30T04:38:32.973Z,14.32
2022-11-30T04:41:00.347Z,10.77
2022-11-30T04:43:27.717Z,13.90
2022-11-30T04:45:55.333Z,15.65
2022-11-30T04:48:22.651Z,14.15
2022-11-30T04:50:49.978Z,12.32
2022-11-30T04:53:17.663Z,12.07
2022-11-30T04:55:44.998Z,11.12
2022-11-30T04:58:12.333Z,12.25
2022-11-30T05:00:39.898Z,11.90
2022-11-30T05:03:07.210Z,12.75
2022-11-30T05:05:34.593Z,12.05
2022-11-30T05:08:02.256Z,12.82
2022-11-30T05:10:30.414Z,12.90
2022-11-30T05:12:57.837Z,13.30
2022-11-30T05:15:25.888Z,10.23
2022-11-30T05:17:53.206Z,10.45
2022-11-30T05:20:20.652Z,12.68
2022-11-30T05:22:48.919Z,11.23
2022-11-30T05:25:16.462Z,10.75
2022-11-30T05:27:43.909Z,11.50
2022-11-30T05:30:12.067Z,11.65
2022-11-30T05:32:39.373Z,12.90
2022-11-30T05:35:06.938Z,12.52
2022-11-30T05:37:34.590Z,13.20
2022-11-30T05:40:01.937Z,13.82
2022-11-30T05:42:29.398Z,13.93
2022-11-30T05:44:57.039Z,13.25
2022-11-30T05:47:24.365Z,12.80
2022-11-30T05:49:51.700Z,14.60
2022-11-30T05:52:19.520Z,19.17
2022-11-30T05:54:47.022Z,14.57
2022-11-30T05:57:14.735Z,12.55
2022-11-30T05:59:42.339Z,13.75
2022-11-30T06:02:09.766Z,13.18
2022-11-30T06:04:37.688Z,13.45
2022-11-30T06:07:05.063Z,14.65
2022-11-30T06:09:32.766Z,14.32
2022-11-30T06:12:00.331Z,11.07
2022-11-30T06:14:27.691Z,12.02
2022-11-30T06:16:55.163Z,13.88
2022-11-30T06:19:22.782Z,10.55
2022-11-30T06:21:50.308Z,15.60
2022-11-30T06:24:17.742Z,19.02
2022-11-30T06:26:45.358Z,19.25
2022-11-30T06:29:12.781Z,16.67
2022-11-30T06:31:40.192Z,18.23
2022-11-30T06:34:07.758Z,16.55
2022-11-30T06:36:36.439Z,14.60
2022-11-30T06:39:04.469Z,14.68
2022-11-30T06:41:32.213Z,14.05
2022-11-30T06:43:59.628Z,17.48
2022-11-30T06:46:27.790Z,18.52
2022-11-30T06:48:55.572Z,13.02
2022-11-30T06:51:22.898Z,14.02
2022-11-30T06:53:50.236Z,14.77
2022-11-30T06:56:17.965Z,14.30
2022-11-30T06:58:45.275Z,11.77
2022-11-30T07:01:15.222Z,16.12
2022-11-30T07:03:43.580Z,13.18
2022-11-30T07:06:12.573Z,16.83
2022-11-30T07:08:42.262Z,14.43
2022-11-30T07:11:10.860Z,15.80
2022-11-30T07:13:38.329Z,15.30
2022-11-30T07:16:07.351Z,12.52
2022-11-30T07:18:35.295Z,14.48
2022-11-30T07:21:04.231Z,14.10
2022-11-30T07:24:07.506Z,14.40
2022-11-30T07:26:35.609Z,13.80
2022-11-30T07:29:05.244Z,13.15
2022-11-30T07:31:34.600Z,16.40
2022-11-30T07:34:07.675Z,14.38
2022-11-30T07:36:35.798Z,11.40
2022-11-30T07:39:04.145Z,12.65
2022-11-30T07:41:31.482Z,9.73
2022-11-30T07:44:01.149Z,8.70
2022-11-30T07:46:28.732Z,9.95
2022-11-30T07:48:56.044Z,8.88
2022-11-30T07:51:23.380Z,11.25
2022-11-30T07:53:51.312Z,12.63
2022-11-30T07:56:20.128Z,11.90
2022-11-30T07:58:48.364Z,10.93
2022-11-30T08:01:19.177Z,9.00
2022-11-30T08:03:46.881Z,13.62
2022-11-30T08:06:22.064Z,14.05
2022-11-30T08:08:51.218Z,9.57
2022-11-30T08:11:21.802Z,10.75
2022-11-30T08:13:49.403Z,11.20
2022-11-30T08:16:27.981Z,10.30
2022-11-30T08:18:57.085Z,16.05
2022-11-30T08:21:24.875Z,11.57
2022-11-30T08:23:56.065Z,17.25
2022-11-30T08:26:26.217Z,13.43
2022-11-30T08:28:53.919Z,9.48
2022-11-30T08:31:27.276Z,10.00
2022-11-30T08:34:06.526Z,20.62
2022-11-30T08:36:34.478Z,11.77
2022-11-30T08:39:05.020Z,37.95
2022-11-30T08:41:34.977Z,18.92
2022-11-30T08:44:02.895Z,27.42
2022-11-30T08:49:23.569Z,6.53
2022-11-30T08:52:16.936Z,8.65
2022-11-30T08:57:33.366Z,36.17
2022-11-30T09:00:00.962Z,19.55
2022-11-30T09:02:28.353Z,8.68
2022-11-30T09:04:55.819Z,6.10
2022-11-30T09:07:23.442Z,6.50
2022-11-30T09:09:50.845Z,9.90
2022-11-30T09:12:18.397Z,7.50
2022-11-30T09:14:53.940Z,7.62
2022-11-30T09:17:24.933Z,7.47
2022-11-30T09:19:52.679Z,6.85
2022-11-30T09:22:20.145Z,7.45
2022-11-30T09:24:47.646Z,6.20
2022-11-30T09:27:15.649Z,9.45
2022-11-30T09:29:42.977Z,7.82
2022-11-30T09:32:10.304Z,7.93
2022-11-30T09:34:38.472Z,9.57
2022-11-30T09:37:05.842Z,7.78
2022-11-30T09:39:33.155Z,9.45
2022-11-30T09:42:22.048Z,8.65
2022-11-30T09:45:15.812Z,7.43
2022-11-30T09:47:57.469Z,6.60
2022-11-30T09:50:28.186Z,11.52
2022-11-30T09:52:58.843Z,7.57
2022-11-30T09:55:39.427Z,7.68
2022-11-30T09:58:07.596Z,11.55
2022-11-30T10:00:35.200Z,8.45
2022-11-30T10:03:04.733Z,7.70
2022-11-30T10:05:46.096Z,9.10
2022-11-30T10:08:27.256Z,9.18
2022-11-30T10:11:14.648Z,6.82
2022-11-30T10:13:42.154Z,9.20
2022-11-30T10:16:20.708Z,9.02
2022-11-30T10:19:01.076Z,16.55
2022-11-30T10:22:02.591Z,10.98
2022-11-30T10:24:39.098Z,8.93
2022-11-30T10:27:46.020Z,9.27
2022-11-30T10:30:22.217Z,17.92
2022-11-30T10:32:58.752Z,11.60
2022-11-30T10:35:39.150Z,13.32
2022-11-30T10:38:27.919Z,10.65
2022-11-30T10:41:01.474Z,10.70
2022-11-30T10:43:38.756Z,8.80
2022-11-30T10:46:06.493Z,13.05
2022-11-30T10:49:02.704Z,11.35
2022-11-30T10:51:31.016Z,8.85
2022-11-30T10:53:58.673Z,11.70
2022-11-30T10:56:26.083Z,10.15
2022-11-30T10:59:17.284Z,10.38
2022-11-30T11:01:44.737Z,10.93
2022-11-30T11:04:12.390Z,10.82
2022-11-30T11:06:43.535Z,10.07
2022-11-30T11:09:49.137Z,10.02
2022-11-30T11:15:23.419Z,9.48
2022-11-30T11:17:52.243Z,9.15
2022-11-30T11:20:35.636Z,8.40
2022-11-30T11:23:04.309Z,12.45
2022-11-30T11:25:34.655Z,12.20
2022-11-30T11:28:14.692Z,12.05
2022-11-30T11:30:42.509Z,10.40
2022-11-30T11:33:13.237Z,9.38
2022-11-30T11:35:49.464Z,9.77
2022-11-30T11:38:47.312Z,9.10
2022-11-30T11:41:31.418Z,11.73
2022-11-30T11:44:23.022Z,10.18
2022-11-30T11:46:57.338Z,11.23
2022-11-30T11:49:27.941Z,9.07
2022-11-30T11:52:02.245Z,10.07
2022-11-30T11:54:55.438Z,11.05
2022-11-30T11:57:40.461Z,8.30
2022-11-30T12:00:19.073Z,9.80
2022-11-30T12:03:18.979Z,11.18
2022-11-30T12:05:50.343Z,9.15
2022-11-30T12:08:39.923Z,10.20
2022-11-30T12:11:25.065Z,9.05
2022-11-30T12:13:53.749Z,10.73
2022-11-30T12:16:40.608Z,9.85
2022-11-30T12:19:14.287Z,9.85
2022-11-30T12:22:06.369Z,10.55
2022-11-30T12:25:02.758Z,10.88
2022-11-30T12:27:50.429Z,15.68
2022-11-30T12:30:26.106Z,14.05
2022-11-30T12:33:35.051Z,13.15
2022-11-30T12:36:05.909Z,9.63
2022-11-30T12:38:50.297Z,10.07
2022-11-30T12:41:33.116Z,9.20
2022-11-30T12:44:23.374Z,11.10
2022-11-30T12:47:18.432Z,10.52
2022-11-30T12:49:48.789Z,9.48
2022-11-30T12:52:37.305Z,11.82
2022-11-30T12:55:35.372Z,13.40
2022-11-30T12:58:27.818Z,11.43
2022-11-30T13:01:08.878Z,11.60
2022-11-30T13:03:45.402Z,12.35
2022-11-30T13:06:18.504Z,12.35
2022-11-30T13:09:21.556Z,13.73
2022-11-30T13:11:53.899Z,12.43
2022-11-30T13:14:23.289Z,13.45
2022-11-30T13:16:58.278Z,10.85
2022-11-30T13:19:42.920Z,12.10
2022-11-30T13:22:37.941Z,9.80
2022-11-30T13:26:06.357Z,13.30
2022-11-30T13:28:42.518Z,12.98
2022-11-30T13:31:34.129Z,13.77
2022-11-30T13:34:02.045Z,13.18
2022-11-30T13:36:45.400Z,10.52
2022-11-30T13:39:16.369Z,10.80
2022-11-30T13:41:46.437Z,11.60
2022-11-30T13:44:32.437Z,9.30
2022-11-30T13:47:30.535Z,10.02
2022-11-30T13:50:06.990Z,12.68
2022-11-30T13:53:02.619Z,10.50
2022-11-30T13:55:35.894Z,8.45
2022-11-30T13:58:07.497Z,10.77
2022-11-30T14:00:34.745Z,10.38
2022-11-30T14:03:20.416Z,22.83
2022-11-30T14:05:53.976Z,21.50
2022-11-30T14:08:21.410Z,7.82
2022-11-30T14:10:53.292Z,8.90
2022-11-30T14:13:23.490Z,9.13
2022-11-30T14:15:52.820Z,8.82
2022-11-30T14:18:20.203Z,8.13
2022-11-30T14:20:51.884Z,9.07
2022-11-30T14:23:40.598Z,9.73
2022-11-30T14:26:13.519Z,6.97
2022-11-30T14:29:02.508Z,8.18
2022-11-30T14:31:48.051Z,9.15
2022-11-30T14:34:19.057Z,7.97
2022-11-30T14:36:50.839Z,7.32
2022-11-30T14:39:31.679Z,9.82
2022-11-30T14:41:59.674Z,7.70
2022-11-30T14:44:27.885Z,8.00
2022-11-30T14:46:55.241Z,7.35
2022-11-30T14:49:24.098Z,6.90
2022-11-30T14:52:02.214Z,7.10
2022-11-30T14:54:42.052Z,5.75
2022-11-30T14:57:20.319Z,7.80
2022-11-30T14:59:51.609Z,18.77
2022-11-30T15:02:34.234Z,14.60
2022-11-30T15:05:01.885Z,13.57
2022-11-30T15:07:29.820Z,10.20
2022-11-30T15:10:04.925Z,8.73
2022-11-30T15:12:33.480Z,7.65
2022-11-30T15:15:07.139Z,7.80
2022-11-30T15:17:45.708Z,6.70
2022-11-30T15:20:24.447Z,8.30
2022-11-30T15:22:53.954Z,8.27
2022-11-30T15:25:21.963Z,9.10
2022-11-30T15:27:49.423Z,7.60
2022-11-30T15:30:17.860Z,10.02
2022-11-30T15:32:46.927Z,15.93
2022-11-30T15:35:22.994Z,7.78
2022-11-30T15:37:51.113Z,7.15
2022-11-30T15:40:33.160Z,9.52
2022-11-30T15:43:01.910Z,7.30
2022-11-30T15:45:32.797Z,7.22
2022-11-30T15:48:00.990Z,12.93
2022-11-30T15:50:28.563Z,10.02
2022-11-30T15:52:57.632Z,10.65
2022-11-30T15:55:43.172Z,8.25
2022-11-30T15:58:35.019Z,10.18
2022-11-30T16:01:24.845Z,7.53
2022-11-30T16:03:55.551Z,6.03
2022-11-30T16:06:24.327Z,6.70
2022-11-30T16:08:51.986Z,39.10
2022-11-30T16:11:19.759Z,12.90
2022-11-30T16:13:47.448Z,10.23
2022-11-30T16:16:21.885Z,14.68
2022-11-30T16:18:50.419Z,9.93
2022-11-30T16:21:18.983Z,13.38
2022-11-30T16:23:47.899Z,9.57
2022-11-30T16:29:05.767Z,11.90
2022-11-30T16:31:34.504Z,28.05
2022-11-30T16:34:01.838Z,14.43
2022-11-30T16:36:30.699Z,8.40
2022-11-30T16:38:58.440Z,11.57
2022-11-30T16:41:28.887Z,18.02
2022-11-30T16:43:57.670Z,1011.17
2022-11-30T16:46:28.189Z,533.53
2022-11-30T16:48:57.067Z,254.98
2022-11-30T16:51:34.568Z,447.67
2022-11-30T16:54:02.063Z,393.40
2022-11-30T16:56:30.150Z,101.95
2022-11-30T16:58:57.528Z,136.95
2022-11-30T17:01:37.452Z,38.88
2022-11-30T17:04:26.604Z,41.30
2022-11-30T17:07:00.540Z,37.40
2022-11-30T17:09:30.625Z,75.65
2022-11-30T17:11:58.427Z,36.13
2022-11-30T17:14:26.682Z,28.23
2022-11-30T17:16:54.588Z,46.88
2022-11-30T17:19:23.022Z,29.65
2022-11-30T17:21:51.275Z,24.52
2022-11-30T17:24:19.431Z,59.78
2022-11-30T17:26:47.423Z,59.08
2022-11-30T17:29:15.385Z,33.10
2022-11-30T17:31:43.151Z,29.12
2022-11-30T17:34:10.723Z,22.98
2022-11-30T17:36:38.691Z,29.60
2022-11-30T17:39:07.797Z,21.83
2022-11-30T17:41:35.384Z,56.33
2022-11-30T17:44:03.193Z,101.32
2022-11-30T17:46:31.066Z,32.70
2022-11-30T17:48:58.917Z,31.65
2022-11-30T17:51:26.744Z,32.97
2022-11-30T17:53:54.870Z,33.95
2022-11-30T17:56:22.599Z,23.25
2022-11-30T17:58:50.387Z,25.77
2022-11-30T18:01:25.473Z,33.85
2022-11-30T18:03:54.238Z,32.28
2022-11-30T18:06:22.216Z,34.38
2022-11-30T18:08:49.983Z,28.60
2022-11-30T18:11:20.787Z,32.13
2022-11-30T18:13:51.993Z,25.48
2022-11-30T18:16:24.643Z,32.45
2022-11-30T18:18:53.321Z,27.83
2022-11-30T18:21:22.668Z,31.02
2022-11-30T18:23:51.191Z,29.08
2022-11-30T18:26:20.798Z,31.80
2022-11-30T18:28:57.855Z,35.85
2022-11-30T18:31:26.332Z,28.05
2022-11-30T18:33:58.921Z,43.67
2022-11-30T18:36:27.080Z,39.95
2022-11-30T18:38:55.499Z,52.42
2022-11-30T18:41:26.480Z,55.45
2022-11-30T18:43:55.122Z,57.00
2022-11-30T18:46:23.841Z,50.75
2022-11-30T18:48:55.396Z,44.55
2022-11-30T18:51:28.301Z,48.58
2022-11-30T18:54:01.829Z,52.15
2022-11-30T18:56:32.501Z,46.70
2022-11-30T18:59:02.778Z,42.40
2022-11-30T19:01:31.319Z,35.47
2022-11-30T19:04:02.519Z,36.53
2022-11-30T19:06:33.217Z,36.63
2022-11-30T19:09:03.912Z,44.83
2022-11-30T19:11:35.429Z,28.02
2022-11-30T19:14:04.162Z,44.85
2022-11-30T19:16:35.397Z,61.65
2022-11-30T19:19:05.939Z,74.28
2022-11-30T19:21:34.625Z,86.35
2022-11-30T19:24:02.541Z,60.88
2022-11-30T19:26:30.176Z,68.00
2022-11-30T19:28:59.341Z,71.87
2022-11-30T19:31:30.022Z,71.85
2022-11-30T19:33:58.390Z,78.18
2022-11-30T19:36:27.827Z,80.57
2022-11-30T19:38:56.773Z,72.00
2022-11-30T19:41:25.284Z,84.18
2022-11-30T19:44:03.879Z,94.60
2022-11-30T19:46:33.564Z,90.22
2022-11-30T19:49:02.045Z,76.53
2022-11-30T19:51:31.200Z,55.47
2022-11-30T19:54:10.738Z,60.17
2022-11-30T19:56:44.702Z,65.07
2022-11-30T19:59:12.999Z,80.95
2022-11-30T20:01:41.045Z,95.22
2022-11-30T20:04:09.703Z,118.53
2022-11-30T20:06:38.942Z,92.05
2022-11-30T20:09:08.100Z,90.05
2022-11-30T20:11:36.745Z,79.22
2022-11-30T20:14:04.940Z,74.07
2022-11-30T20:16:33.045Z,84.90
2022-11-30T20:19:02.344Z,79.75
2022-11-30T20:21:32.919Z,74.25
2022-11-30T20:24:04.822Z,83.30
2022-11-30T20:26:43.231Z,86.43
2022-11-30T20:29:16.363Z,85.03
2022-11-30T20:31:46.944Z,81.72
2022-11-30T20:34:16.432Z,77.03
2022-11-30T20:36:44.332Z,78.62
2022-11-30T20:39:12.201Z,73.95
2022-11-30T20:41:42.673Z,63.63
2022-11-30T20:44:15.432Z,65.18
2022-11-30T20:46:45.400Z,68.82
2022-11-30T20:49:18.912Z,75.95
2022-11-30T20:51:47.647Z,69.05
2022-11-30T20:54:18.047Z,72.57
2022-11-30T20:56:48.865Z,73.03
2022-11-30T20:59:23.731Z,77.57
2022-11-30T21:01:51.885Z,249.00
2022-11-30T21:04:21.789Z,250.10
2022-11-30T21:06:49.448Z,258.55
2022-11-30T21:09:18.217Z,309.37
2022-11-30T21:11:46.684Z,370.25
2022-11-30T21:14:14.778Z,403.75
2022-11-30T21:16:42.566Z,72.93
2022-11-30T21:19:11.790Z,91.22
2022-11-30T21:21:39.124Z,92.90
2022-11-30T21:24:08.624Z,113.90
2022-11-30T21:26:39.052Z,84.80
2022-11-30T21:29:14.561Z,548.03
2022-11-30T21:31:42.750Z,74.78
2022-11-30T21:34:10.368Z,94.55
2022-11-30T21:36:37.712Z,96.70
2022-11-30T21:39:09.052Z,76.50
2022-11-30T21:41:37.962Z,58.42
2022-11-30T21:44:07.144Z,59.00
2022-11-30T21:46:34.585Z,52.38
2022-11-30T21:49:02.212Z,77.62
2022-11-30T21:51:31.795Z,80.90
2022-11-30T21:54:01.431Z,56.80
2022-11-30T21:56:31.199Z,48.05
2022-11-30T21:58:59.149Z,41.63
2022-11-30T22:01:29.256Z,44.15
2022-11-30T22:04:01.190Z,40.40
2022-11-30T22:06:29.676Z,36.05
2022-11-30T22:09:03.403Z,25.48
2022-11-30T22:11:31.252Z,23.98
2022-11-30T22:13:58.993Z,21.25
2022-11-30T22:16:32.425Z,23.73
2022-11-30T22:19:06.077Z,23.80
2022-11-30T22:21:33.918Z,24.02
2022-11-30T22:24:06.319Z,21.98
2022-11-30T22:26:35.910Z,20.65
2022-11-30T22:29:14.169Z,22.15
2022-11-30T22:31:44.145Z,23.48
2022-11-30T22:34:11.838Z,21.80
2022-11-30T22:36:41.184Z,27.77
2022-11-30T22:39:14.753Z,26.55
2022-11-30T22:41:43.124Z,28.58
2022-11-30T22:44:14.915Z,25.50
2022-11-30T22:46:44.038Z,25.33
2022-11-30T22:49:19.843Z,25.50
2022-11-30T22:51:49.031Z,23.77
2022-11-30T22:54:16.898Z,23.08
2022-11-30T22:56:46.455Z,23.85
2022-11-30T22:59:15.017Z,25.02
2022-11-30T23:01:47.374Z,27.20
2022-11-30T23:04:17.009Z,27.60
2022-11-30T23:06:45.475Z,25.62
2022-11-30T23:09:15.377Z,23.95
2022-11-30T23:11:42.742Z,25.20
2022-11-30T23:14:12.094Z,23.35
2022-11-30T23:16:39.823Z,22.27
2022-11-30T23:19:08.004Z,23.30
2022-11-30T23:21:41.505Z,21.60
2022-11-30T23:24:13.677Z,22.70
2022-11-30T23:26:41.737Z,20.60
2022-11-30T23:29:11.753Z,21.15
2022-11-30T23:31:40.296Z,22.33
2022-11-30T23:34:19.280Z,24.17
2022-11-30T23:36:48.398Z,20.33
2022-11-30T23:39:18.229Z,23.25
2022-11-30T23:41:45.948Z,22.27
2022-11-30T23:44:13.461Z,19.35
2022-11-30T23:46:41.149Z,23.10
2022-11-30T23:49:08.609Z,22.55
2022-11-30T23:51:35.998Z,20.58
2022-11-30T23:54:03.754Z,18.42
2022-11-30T23:56:31.134Z,21.25
2022-11-30T23:58:58.484Z,21.67
